Ellsworth, ME

2:13 PM EST on January 30, 2015 (GMT -0500)
Knox County Regional | Change Station
CLOSE
Current Station
Airport
Location: Rockland,
Elevation: 56 ft
Nearby Weather Stations
Active Advisory: Winter Storm Warning Active Notice: Public Information Statement

Elev 56 ft 44.06 °N, 69.10 °W | Updated 18 minutes ago

Rain
Rain
37 °F
Feels Like 30 °F
N
10
Wind Variable Wind from SE

Today
High -- | Low -- °F
--% Chance of Precip.
Yesterday
High -- | Low -- °F
Precip. -- in
6:54 AM 4:39 PM
Waxing Gibbous, 84% visible
Pressure 29.71 in
Visibility 9.0 miles
Clouds Overcast 800 ft
Windchill 30 °F
Dew Point 36 °F
Humidity 93%
Rainfall 0.00 in
Snow Depth Not available.
UV 1 out of 12
Pollen .10 out of 12
Air Quality Not available.
Flu Activity Not available.
METAR KRKD 301855Z AUTO 13009KT 9SM OVC008 03/02 A2971 RMK AO1

More Conditions Fewer Conditions

Pressure 29.71 in
Visibility 9.0 miles
Clouds Overcast 800 ft
Windchill 30 °F
Dew Point 36 °F
Humidity 93%
Rainfall 0.00 in
Snow Depth Not available.
UV 1 out of 12
Pollen .10 out of 12
Air Quality Not available.
Flu Activity Not available.
METAR KRKD 301855Z AUTO 13009KT 9SM OVC008 03/02 A2971 RMK AO1

More Conditions Fewer Conditions

10-Day Weather Forecast

Almanac

Astronomy

Jan. 30, 2015 Rise Set
Actual Time
Civil Twilight
Nautical Twilight
Astronomical Twilight
Moon
Length of Visible Light
Length of Day
Tomorrow will be .
, % of the Moon is Illuminated

Today's Extremes

State Highs State Lows

Community

WunderPhotos

Upload Photos

1,791,868 photos uploaded!

WunderBlogs® & News

Nearby

Air Quality

  Air Quality AQ Index Pollutant
Not available.

Snow Depth

Station Depth Elevation

Earthquake Activity

City Distance Mag. Time & Date
Minimum magnitude displayed is 2.5.

Coastal Water Temperatures

Place Temperature

Nearby Weather Stations